sensor_id;sensor_type;location;lat;lon;timestamp;pressure;altitude;pressure_sealevel;temperature;humidity
48926;BME280;39838;59.938;30.642;2023-06-22T00:02:25;100611.44;;;18.98;54.32
48926;BME280;39838;59.938;30.642;2023-06-22T00:04:53;100604.59;;;18.92;54.37
48926;BME280;39838;59.938;30.642;2023-06-22T00:07:20;100602.97;;;18.88;54.63
48926;BME280;39838;59.938;30.642;2023-06-22T00:09:47;100605.78;;;18.84;54.74
48926;BME280;39838;59.938;30.642;2023-06-22T00:12:14;100592.63;;;18.82;54.76
48926;BME280;39838;59.938;30.642;2023-06-22T00:14:43;100598.81;;;18.81;55.04
48926;BME280;39838;59.938;30.642;2023-06-22T00:17:10;100600.72;;;18.77;55.20
48926;BME280;39838;59.938;30.642;2023-06-22T00:19:38;100594.66;;;18.74;55.23
48926;BME280;39838;59.938;30.642;2023-06-22T00:22:06;100588.69;;;18.69;55.23
48926;BME280;39838;59.938;30.642;2023-06-22T00:24:33;100589.69;;;18.65;55.66
48926;BME280;39838;59.938;30.642;2023-06-22T00:27:01;100585.41;;;18.61;55.70
48926;BME280;39838;59.938;30.642;2023-06-22T00:29:28;100585.53;;;18.58;55.82
48926;BME280;39838;59.938;30.642;2023-06-22T00:31:57;100582.06;;;18.55;55.98
48926;BME280;39838;59.938;30.642;2023-06-22T00:34:24;100575.13;;;18.53;56.00
48926;BME280;39838;59.938;30.642;2023-06-22T00:36:51;100567.28;;;18.51;56.13
48926;BME280;39838;59.938;30.642;2023-06-22T00:39:19;100566.50;;;18.48;56.14
48926;BME280;39838;59.938;30.642;2023-06-22T00:41:46;100566.56;;;18.46;56.44
48926;BME280;39838;59.938;30.642;2023-06-22T00:44:13;100567.53;;;18.44;56.43
48926;BME280;39838;59.938;30.642;2023-06-22T00:46:41;100557.09;;;18.41;56.67
48926;BME280;39838;59.938;30.642;2023-06-22T00:49:10;100571.22;;;18.38;56.84
48926;BME280;39838;59.938;30.642;2023-06-22T00:51:38;100560.78;;;18.35;56.99
48926;BME280;39838;59.938;30.642;2023-06-22T00:54:11;100567.06;;;18.31;56.86
48926;BME280;39838;59.938;30.642;2023-06-22T00:56:40;100563.66;;;18.27;57.09
48926;BME280;39838;59.938;30.642;2023-06-22T00:59:08;100558.44;;;18.26;57.21
48926;BME280;39838;59.938;30.642;2023-06-22T01:01:38;100564.63;;;18.25;57.16
48926;BME280;39838;59.938;30.642;2023-06-22T01:04:08;100558.53;;;18.23;57.24
48926;BME280;39838;59.938;30.642;2023-06-22T01:06:43;100551.53;;;18.22;57.32
48926;BME280;39838;59.938;30.642;2023-06-22T01:09:15;100555.09;;;18.21;57.36
48926;BME280;39838;59.938;30.642;2023-06-22T01:11:45;100543.81;;;18.17;57.53
48926;BME280;39838;59.938;30.642;2023-06-22T01:14:22;100540.31;;;18.17;57.68
48926;BME280;39838;59.938;30.642;2023-06-22T01:16:51;100544.56;;;18.21;57.58
48926;BME280;39838;59.938;30.642;2023-06-22T01:19:38;100531.53;;;18.18;57.63
48926;BME280;39838;59.938;30.642;2023-06-22T01:22:09;100541.13;;;18.19;57.63
48926;BME280;39838;59.938;30.642;2023-06-22T01:24:45;100546.38;;;18.19;57.81
48926;BME280;39838;59.938;30.642;2023-06-22T01:27:28;100537.78;;;18.14;57.77
48926;BME280;39838;59.938;30.642;2023-06-22T01:30:01;100543.75;;;18.19;57.83
48926;BME280;39838;59.938;30.642;2023-06-22T01:32:34;100539.31;;;18.21;57.96
48926;BME280;39838;59.938;30.642;2023-06-22T01:35:04;100543.53;;;18.26;58.10
48926;BME280;39838;59.938;30.642;2023-06-22T01:37:34;100543.47;;;18.28;57.94
48926;BME280;39838;59.938;30.642;2023-06-22T01:40:02;100542.47;;;18.32;57.85
48926;BME280;39838;59.938;30.642;2023-06-22T01:42:32;100540.63;;;18.36;57.84
48926;BME280;39838;59.938;30.642;2023-06-22T01:45:02;100543.13;;;18.39;57.74
48926;BME280;39838;59.938;30.642;2023-06-22T01:47:33;100537.78;;;18.42;57.77
48926;BME280;39838;59.938;30.642;2023-06-22T01:50:01;100529.06;;;18.40;57.58
48926;BME280;39838;59.938;30.642;2023-06-22T01:52:31;100533.59;;;18.36;57.81
48926;BME280;39838;59.938;30.642;2023-06-22T01:55:00;100535.44;;;18.33;58.15
48926;BME280;39838;59.938;30.642;2023-06-22T01:57:30;100539.78;;;18.34;58.17
48926;BME280;39838;59.938;30.642;2023-06-22T02:00:03;100520.63;;;18.30;58.23
48926;BME280;39838;59.938;30.642;2023-06-22T02:02:38;100525.88;;;18.30;58.45
48926;BME280;39838;59.938;30.642;2023-06-22T02:05:07;100518.94;;;18.27;58.31
48926;BME280;39838;59.938;30.642;2023-06-22T02:07:46;100521.53;;;18.29;58.54
48926;BME280;39838;59.938;30.642;2023-06-22T02:10:16;100523.22;;;18.32;58.30
48926;BME280;39838;59.938;30.642;2023-06-22T02:12:48;100524.19;;;18.29;58.37
48926;BME280;39838;59.938;30.642;2023-06-22T02:15:17;100519.59;;;18.34;58.38
48926;BME280;39838;59.938;30.642;2023-06-22T02:17:45;100516.84;;;18.39;58.57
48926;BME280;39838;59.938;30.642;2023-06-22T02:20:13;100514.88;;;18.45;58.36
48926;BME280;39838;59.938;30.642;2023-06-22T02:22:40;100516.34;;;18.54;58.50
48926;BME280;39838;59.938;30.642;2023-06-22T02:25:08;100519.41;;;18.68;58.29
48926;BME280;39838;59.938;30.642;2023-06-22T02:27:35;100514.66;;;18.79;57.96
48926;BME280;39838;59.938;30.642;2023-06-22T02:30:07;100512.41;;;18.94;58.28
48926;BME280;39838;59.938;30.642;2023-06-22T02:32:36;100512.66;;;19.13;57.57
48926;BME280;39838;59.938;30.642;2023-06-22T02:35:08;100511.22;;;19.27;57.34
48926;BME280;39838;59.938;30.642;2023-06-22T02:37:36;100511.75;;;19.37;56.96
48926;BME280;39838;59.938;30.642;2023-06-22T02:40:06;100509.53;;;19.50;56.70
48926;BME280;39838;59.938;30.642;2023-06-22T02:42:34;100506.56;;;19.60;56.10
48926;BME280;39838;59.938;30.642;2023-06-22T02:45:02;100508.72;;;19.73;55.78
48926;BME280;39838;59.938;30.642;2023-06-22T02:47:30;100510.09;;;19.83;55.27
48926;BME280;39838;59.938;30.642;2023-06-22T02:49:59;100505.50;;;19.88;55.17
48926;BME280;39838;59.938;30.642;2023-06-22T02:52:27;100503.56;;;19.93;55.01
48926;BME280;39838;59.938;30.642;2023-06-22T02:54:54;100503.44;;;19.96;54.78
48926;BME280;39838;59.938;30.642;2023-06-22T02:57:21;100497.22;;;19.97;54.82
48926;BME280;39838;59.938;30.642;2023-06-22T02:59:48;100506.75;;;20.01;54.66
48926;BME280;39838;59.938;30.642;2023-06-22T03:02:16;100507.69;;;20.00;54.90
48926;BME280;39838;59.938;30.642;2023-06-22T03:04:44;100512.09;;;20.00;54.78
48926;BME280;39838;59.938;30.642;2023-06-22T03:07:16;100517.13;;;20.06;54.69
48926;BME280;39838;59.938;30.642;2023-06-22T03:09:44;100535.59;;;20.06;54.56
48926;BME280;39838;59.938;30.642;2023-06-22T03:12:11;100541.97;;;20.00;55.31
48926;BME280;39838;59.938;30.642;2023-06-22T03:14:38;100538.84;;;19.89;56.12
48926;BME280;39838;59.938;30.642;2023-06-22T03:17:06;100524.19;;;19.82;56.13
48926;BME280;39838;59.938;30.642;2023-06-22T03:19:33;100524.09;;;19.85;56.14
48926;BME280;39838;59.938;30.642;2023-06-22T03:22:01;100536.16;;;19.90;56.56
48926;BME280;39838;59.938;30.642;2023-06-22T03:24:29;100530.09;;;19.88;56.54
48926;BME280;39838;59.938;30.642;2023-06-22T03:26:57;100537.22;;;19.86;56.70
48926;BME280;39838;59.938;30.642;2023-06-22T03:29:24;100526.72;;;19.85;56.90
48926;BME280;39838;59.938;30.642;2023-06-22T03:31:52;100527.53;;;19.87;56.93
48926;BME280;39838;59.938;30.642;2023-06-22T03:34:19;100515.91;;;19.91;56.82
48926;BME280;39838;59.938;30.642;2023-06-22T03:36:46;100521.47;;;19.85;56.98
48926;BME280;39838;59.938;30.642;2023-06-22T03:39:13;100522.25;;;19.87;57.29
48926;BME280;39838;59.938;30.642;2023-06-22T03:41:42;100534.28;;;19.94;57.24
48926;BME280;39838;59.938;30.642;2023-06-22T03:44:09;100524.47;;;19.98;57.15
48926;BME280;39838;59.938;30.642;2023-06-22T03:46:38;100513.97;;;19.96;57.23
48926;BME280;39838;59.938;30.642;2023-06-22T03:49:05;100512.94;;;20.00;57.13
48926;BME280;39838;59.938;30.642;2023-06-22T03:51:32;100505.59;;;20.08;56.91
48926;BME280;39838;59.938;30.642;2023-06-22T03:54:00;100501.66;;;20.18;56.65
48926;BME280;39838;59.938;30.642;2023-06-22T03:56:27;100504.63;;;20.33;56.29
48926;BME280;39838;59.938;30.642;2023-06-22T03:58:56;100508.47;;;20.48;56.05
48926;BME280;39838;59.938;30.642;2023-06-22T04:01:23;100511.47;;;20.60;55.94
48926;BME280;39838;59.938;30.642;2023-06-22T04:03:50;100513.56;;;20.72;55.53
48926;BME280;39838;59.938;30.642;2023-06-22T04:06:18;100513.81;;;20.88;55.31
48926;BME280;39838;59.938;30.642;2023-06-22T04:08:46;100503.56;;;21.01;55.10
48926;BME280;39838;59.938;30.642;2023-06-22T04:11:16;100503.16;;;21.10;54.66
48926;BME280;39838;59.938;30.642;2023-06-22T04:13:44;100504.63;;;21.17;54.44
48926;BME280;39838;59.938;30.642;2023-06-22T04:16:13;100500.25;;;21.16;54.15
48926;BME280;39838;59.938;30.642;2023-06-22T04:18:40;100498.41;;;21.18;54.18
48926;BME280;39838;59.938;30.642;2023-06-22T04:21:07;100499.81;;;21.27;54.23
48926;BME280;39838;59.938;30.642;2023-06-22T04:23:35;100491.75;;;21.30;53.95
48926;BME280;39838;59.938;30.642;2023-06-22T04:26:02;100498.56;;;21.36;54.00
48926;BME280;39838;59.938;30.642;2023-06-22T04:28:29;100492.00;;;21.44;53.98
48926;BME280;39838;59.938;30.642;2023-06-22T04:31:01;100487.44;;;21.48;53.65
48926;BME280;39838;59.938;30.642;2023-06-22T04:33:29;100482.94;;;21.50;53.74
48926;BME280;39838;59.938;30.642;2023-06-22T04:35:57;100485.44;;;21.53;53.65
48926;BME280;39838;59.938;30.642;2023-06-22T04:38:26;100485.72;;;21.66;53.61
48926;BME280;39838;59.938;30.642;2023-06-22T04:40:54;100485.31;;;21.75;53.64
48926;BME280;39838;59.938;30.642;2023-06-22T04:43:21;100483.16;;;21.83;53.42
48926;BME280;39838;59.938;30.642;2023-06-22T04:45:48;100482.88;;;21.89;53.26
48926;BME280;39838;59.938;30.642;2023-06-22T04:48:18;100483.22;;;22.00;53.04
48926;BME280;39838;59.938;30.642;2023-06-22T04:50:46;100484.72;;;22.06;52.77
48926;BME280;39838;59.938;30.642;2023-06-22T04:53:14;100480.59;;;22.19;52.38
48926;BME280;39838;59.938;30.642;2023-06-22T04:55:41;100482.00;;;22.26;52.40
48926;BME280;39838;59.938;30.642;2023-06-22T04:58:11;100473.13;;;22.27;52.13
48926;BME280;39838;59.938;30.642;2023-06-22T05:00:38;100471.97;;;22.33;52.11
48926;BME280;39838;59.938;30.642;2023-06-22T05:03:06;100471.28;;;22.47;52.04
48926;BME280;39838;59.938;30.642;2023-06-22T05:05:36;100477.59;;;22.61;51.33
48926;BME280;39838;59.938;30.642;2023-06-22T05:08:05;100469.59;;;22.80;50.93
48926;BME280;39838;59.938;30.642;2023-06-22T05:10:33;100471.34;;;22.99;50.88
48926;BME280;39838;59.938;30.642;2023-06-22T05:13:00;100474.97;;;23.13;49.76
48926;BME280;39838;59.938;30.642;2023-06-22T05:15:27;100460.13;;;23.27;49.87
48926;BME280;39838;59.938;30.642;2023-06-22T05:17:56;100457.00;;;23.36;49.79
48926;BME280;39838;59.938;30.642;2023-06-22T05:20:24;100458.13;;;23.48;50.20
48926;BME280;39838;59.938;30.642;2023-06-22T05:22:51;100448.41;;;23.64;49.85
48926;BME280;39838;59.938;30.642;2023-06-22T05:25:20;100451.00;;;23.81;49.10
48926;BME280;39838;59.938;30.642;2023-06-22T05:27:47;100446.13;;;23.89;48.92
48926;BME280;39838;59.938;30.642;2023-06-22T05:30:16;100442.03;;;24.00;49.06
48926;BME280;39838;59.938;30.642;2023-06-22T05:32:44;100437.81;;;23.95;48.39
48926;BME280;39838;59.938;30.642;2023-06-22T05:37:38;100435.78;;;23.85;48.44
48926;BME280;39838;59.938;30.642;2023-06-22T05:40:07;100430.53;;;23.83;48.64
48926;BME280;39838;59.938;30.642;2023-06-22T05:42:36;100421.81;;;23.81;48.14
48926;BME280;39838;59.938;30.642;2023-06-22T05:45:05;100423.72;;;23.79;48.01
48926;BME280;39838;59.938;30.642;2023-06-22T05:47:32;100413.88;;;23.81;47.69
48926;BME280;39838;59.938;30.642;2023-06-22T05:49:59;100423.19;;;23.88;47.77
48926;BME280;39838;59.938;30.642;2023-06-22T05:52:27;100413.09;;;23.95;47.78
48926;BME280;39838;59.938;30.642;2023-06-22T05:54:55;100417.09;;;24.02;47.84
48926;BME280;39838;59.938;30.642;2023-06-22T05:57:22;100422.31;;;24.04;47.30
48926;BME280;39838;59.938;30.642;2023-06-22T05:59:51;100414.78;;;24.12;47.26
48926;BME280;39838;59.938;30.642;2023-06-22T06:02:19;100419.66;;;24.19;47.34
48926;BME280;39838;59.938;30.642;2023-06-22T06:04:46;100408.69;;;24.26;47.23
48926;BME280;39838;59.938;30.642;2023-06-22T06:07:14;100393.84;;;24.37;46.73
48926;BME280;39838;59.938;30.642;2023-06-22T06:09:41;100391.97;;;24.39;46.47
48926;BME280;39838;59.938;30.642;2023-06-22T06:12:09;100391.69;;;24.44;46.43
48926;BME280;39838;59.938;30.642;2023-06-22T06:14:36;100390.47;;;24.49;46.07
48926;BME280;39838;59.938;30.642;2023-06-22T06:17:05;100386.72;;;24.54;45.89
48926;BME280;39838;59.938;30.642;2023-06-22T06:19:32;100388.63;;;24.66;45.99
48926;BME280;39838;59.938;30.642;2023-06-22T06:21:59;100369.16;;;24.65;45.21
48926;BME280;39838;59.938;30.642;2023-06-22T06:24:27;100380.56;;;24.82;45.23
48926;BME280;39838;59.938;30.642;2023-06-22T06:26:54;100385.63;;;24.86;45.06
48926;BME280;39838;59.938;30.642;2023-06-22T06:29:21;100380.31;;;24.86;44.83
48926;BME280;39838;59.938;30.642;2023-06-22T06:31:51;100377.25;;;24.92;44.77
48926;BME280;39838;59.938;30.642;2023-06-22T06:34:20;100369.00;;;24.97;44.58
48926;BME280;39838;59.938;30.642;2023-06-22T06:36:48;100365.38;;;24.98;44.49
48926;BME280;39838;59.938;30.642;2023-06-22T06:39:15;100363.22;;;25.04;43.56
48926;BME280;39838;59.938;30.642;2023-06-22T06:41:42;100358.69;;;25.07;43.29
48926;BME280;39838;59.938;30.642;2023-06-22T06:44:10;100355.94;;;25.22;43.47
48926;BME280;39838;59.938;30.642;2023-06-22T06:46:37;100359.91;;;25.29;43.17
48926;BME280;39838;59.938;30.642;2023-06-22T06:49:04;100357.34;;;25.28;43.53
48926;BME280;39838;59.938;30.642;2023-06-22T06:51:33;100358.31;;;25.27;43.40
48926;BME280;39838;59.938;30.642;2023-06-22T06:54:01;100356.97;;;25.34;43.61
48926;BME280;39838;59.938;30.642;2023-06-22T06:56:28;100351.78;;;25.45;43.79
48926;BME280;39838;59.938;30.642;2023-06-22T06:58:58;100350.66;;;25.49;44.18
48926;BME280;39838;59.938;30.642;2023-06-22T07:01:25;100353.78;;;25.56;44.09
48926;BME280;39838;59.938;30.642;2023-06-22T07:03:53;100352.81;;;25.57;44.37
48926;BME280;39838;59.938;30.642;2023-06-22T07:06:20;100358.47;;;25.65;44.59
48926;BME280;39838;59.938;30.642;2023-06-22T07:08:49;100355.94;;;25.64;44.56
48926;BME280;39838;59.938;30.642;2023-06-22T07:11:16;100356.56;;;25.67;44.23
48926;BME280;39838;59.938;30.642;2023-06-22T07:13:44;100354.97;;;25.79;44.15
48926;BME280;39838;59.938;30.642;2023-06-22T07:16:11;100352.22;;;25.93;43.96
48926;BME280;39838;59.938;30.642;2023-06-22T07:18:39;100347.69;;;25.95;43.08
48926;BME280;39838;59.938;30.642;2023-06-22T07:21:06;100347.69;;;25.95;42.84
48926;BME280;39838;59.938;30.642;2023-06-22T07:23:34;100351.94;;;25.98;42.72
48926;BME280;39838;59.938;30.642;2023-06-22T07:26:03;100344.81;;;25.98;42.50
48926;BME280;39838;59.938;30.642;2023-06-22T07:28:32;100338.75;;;25.96;42.41
48926;BME280;39838;59.938;30.642;2023-06-22T07:31:02;100344.25;;;25.93;42.42
48926;BME280;39838;59.938;30.642;2023-06-22T07:33:30;100337.63;;;25.86;42.00
48926;BME280;39838;59.938;30.642;2023-06-22T07:35:57;100332.97;;;25.90;42.32
48926;BME280;39838;59.938;30.642;2023-06-22T07:38:25;100337.88;;;25.96;42.19
48926;BME280;39838;59.938;30.642;2023-06-22T07:40:52;100332.56;;;25.96;42.04
48926;BME280;39838;59.938;30.642;2023-06-22T07:43:20;100330.53;;;25.99;41.87
48926;BME280;39838;59.938;30.642;2023-06-22T07:45:48;100331.75;;;26.08;42.26
48926;BME280;39838;59.938;30.642;2023-06-22T07:48:20;100324.09;;;26.16;42.35
48926;BME280;39838;59.938;30.642;2023-06-22T07:50:47;100334.53;;;26.19;42.54
48926;BME280;39838;59.938;30.642;2023-06-22T07:53:14;100321.09;;;26.21;42.65
48926;BME280;39838;59.938;30.642;2023-06-22T07:55:41;100328.16;;;26.34;42.13
48926;BME280;39838;59.938;30.642;2023-06-22T07:58:09;100327.09;;;26.24;41.83
48926;BME280;39838;59.938;30.642;2023-06-22T08:00:37;100325.28;;;26.25;41.87
48926;BME280;39838;59.938;30.642;2023-06-22T08:03:05;100327.09;;;26.37;41.77
48926;BME280;39838;59.938;30.642;2023-06-22T08:05:33;100323.63;;;26.49;41.88
48926;BME280;39838;59.938;30.642;2023-06-22T08:08:00;100316.69;;;26.59;41.77
48926;BME280;39838;59.938;30.642;2023-06-22T08:10:27;100315.63;;;26.75;41.42
48926;BME280;39838;59.938;30.642;2023-06-22T08:12:55;100310.50;;;26.84;41.46
48926;BME280;39838;59.938;30.642;2023-06-22T08:15:22;100308.34;;;27.02;41.17
48926;BME280;39838;59.938;30.642;2023-06-22T08:17:51;100308.56;;;27.12;40.80
48926;BME280;39838;59.938;30.642;2023-06-22T08:20:19;100302.69;;;27.19;40.75
48926;BME280;39838;59.938;30.642;2023-06-22T08:22:46;100299.88;;;27.34;40.52
48926;BME280;39838;59.938;30.642;2023-06-22T08:25:13;100299.31;;;27.41;40.56
48926;BME280;39838;59.938;30.642;2023-06-22T08:27:45;100295.09;;;27.50;40.25
48926;BME280;39838;59.938;30.642;2023-06-22T08:30:13;100290.34;;;27.66;40.49
48926;BME280;39838;59.938;30.642;2023-06-22T08:32:40;100289.69;;;27.75;39.73
48926;BME280;39838;59.938;30.642;2023-06-22T08:35:09;100287.06;;;27.87;39.72
48926;BME280;39838;59.938;30.642;2023-06-22T08:37:37;100289.50;;;27.90;39.38
48926;BME280;39838;59.938;30.642;2023-06-22T08:40:06;100288.44;;;27.92;39.84
48926;BME280;39838;59.938;30.642;2023-06-22T08:42:34;100284.16;;;27.90;39.74
48926;BME280;39838;59.938;30.642;2023-06-22T08:45:02;100274.81;;;27.84;40.03
48926;BME280;39838;59.938;30.642;2023-06-22T08:47:33;100279.06;;;27.87;39.78
48926;BME280;39838;59.938;30.642;2023-06-22T08:50:01;100285.38;;;27.97;40.08
48926;BME280;39838;59.938;30.642;2023-06-22T08:52:33;100270.59;;;28.04;39.82
48926;BME280;39838;59.938;30.642;2023-06-22T08:55:00;100270.28;;;28.20;39.22
48926;BME280;39838;59.938;30.642;2023-06-22T08:57:31;100264.75;;;28.34;39.42
48926;BME280;39838;59.938;30.642;2023-06-22T08:59:59;100267.06;;;28.50;38.76
48926;BME280;39838;59.938;30.642;2023-06-22T09:02:32;100267.69;;;28.53;38.17
48926;BME280;39838;59.938;30.642;2023-06-22T09:05:03;100242.66;;;28.43;37.99
48926;BME280;39838;59.938;30.642;2023-06-22T09:07:30;100254.81;;;28.59;37.80
48926;BME280;39838;59.938;30.642;2023-06-22T09:09:59;100256.16;;;28.64;37.47
48926;BME280;39838;59.938;30.642;2023-06-22T09:12:28;100254.31;;;28.65;37.65
48926;BME280;39838;59.938;30.642;2023-06-22T09:14:56;100248.59;;;28.58;37.06
48926;BME280;39838;59.938;30.642;2023-06-22T09:17:23;100236.72;;;28.51;36.30
48926;BME280;39838;59.938;30.642;2023-06-22T09:19:51;100254.56;;;28.62;36.67
48926;BME280;39838;59.938;30.642;2023-06-22T09:22:18;100248.75;;;28.68;36.60
48926;BME280;39838;59.938;30.642;2023-06-22T09:24:46;100243.53;;;28.66;36.71
48926;BME280;39838;59.938;30.642;2023-06-22T09:27:15;100242.78;;;28.64;35.88
48926;BME280;39838;59.938;30.642;2023-06-22T09:29:42;100225.16;;;28.50;36.55
48926;BME280;39838;59.938;30.642;2023-06-22T09:32:09;100240.84;;;28.66;35.93
48926;BME280;39838;59.938;30.642;2023-06-22T09:34:37;100242.06;;;28.73;36.02
48926;BME280;39838;59.938;30.642;2023-06-22T09:37:05;100240.38;;;28.72;35.73
48926;BME280;39838;59.938;30.642;2023-06-22T09:39:32;100238.41;;;28.74;35.74
48926;BME280;39838;59.938;30.642;2023-06-22T09:41:59;100230.03;;;28.79;35.79
48926;BME280;39838;59.938;30.642;2023-06-22T09:44:28;100229.28;;;28.88;35.42
48926;BME280;39838;59.938;30.642;2023-06-22T09:46:56;100230.66;;;28.94;35.95
48926;BME280;39838;59.938;30.642;2023-06-22T09:49:23;100232.84;;;29.00;35.85
48926;BME280;39838;59.938;30.642;2023-06-22T09:51:51;100222.00;;;29.01;36.13
48926;BME280;39838;59.938;30.642;2023-06-22T09:54:18;100225.03;;;29.08;36.38
48926;BME280;39838;59.938;30.642;2023-06-22T09:56:46;100222.56;;;29.16;36.63
48926;BME280;39838;59.938;30.642;2023-06-22T09:59:13;100213.69;;;29.27;37.01
48926;BME280;39838;59.938;30.642;2023-06-22T10:01:42;100209.94;;;29.50;36.63
48926;BME280;39838;59.938;30.642;2023-06-22T10:04:09;100198.09;;;29.64;36.39
48926;BME280;39838;59.938;30.642;2023-06-22T10:06:36;100210.31;;;29.78;36.37
48926;BME280;39838;59.938;30.642;2023-06-22T10:09:07;100199.97;;;29.73;36.59
48926;BME280;39838;59.938;30.642;2023-06-22T10:11:34;100205.66;;;29.59;36.79
48926;BME280;39838;59.938;30.642;2023-06-22T10:14:02;100206.63;;;29.58;36.84
48926;BME280;39838;59.938;30.642;2023-06-22T10:16:33;100200.56;;;29.56;36.63
48926;BME280;39838;59.938;30.642;2023-06-22T10:19:02;100202.88;;;29.60;36.55
48926;BME280;39838;59.938;30.642;2023-06-22T10:21:30;100195.28;;;29.66;35.95
48926;BME280;39838;59.938;30.642;2023-06-22T10:23:57;100179.97;;;29.68;36.02
48926;BME280;39838;59.938;30.642;2023-06-22T10:26:25;100181.50;;;29.70;36.35
48926;BME280;39838;59.938;30.642;2023-06-22T10:28:54;100178.47;;;29.75;36.50
48926;BME280;39838;59.938;30.642;2023-06-22T10:31:21;100176.09;;;29.81;36.62
48926;BME280;39838;59.938;30.642;2023-06-22T10:33:49;100170.44;;;29.75;36.27
48926;BME280;39838;59.938;30.642;2023-06-22T10:36:18;100161.56;;;29.74;36.18
48926;BME280;39838;59.938;30.642;2023-06-22T10:38:45;100160.47;;;29.86;35.73
48926;BME280;39838;59.938;30.642;2023-06-22T10:41:14;100160.09;;;29.91;35.81
48926;BME280;39838;59.938;30.642;2023-06-22T10:43:41;100151.38;;;29.99;35.73
48926;BME280;39838;59.938;30.642;2023-06-22T10:46:09;100154.13;;;30.08;35.56
48926;BME280;39838;59.938;30.642;2023-06-22T10:48:36;100141.13;;;30.04;35.71
48926;BME280;39838;59.938;30.642;2023-06-22T10:51:04;100144.16;;;30.10;35.66
48926;BME280;39838;59.938;30.642;2023-06-22T10:53:32;100138.97;;;30.18;36.17
48926;BME280;39838;59.938;30.642;2023-06-22T10:55:59;100139.69;;;30.21;35.68
48926;BME280;39838;59.938;30.642;2023-06-22T10:58:27;100138.56;;;30.23;35.81
48926;BME280;39838;59.938;30.642;2023-06-22T11:00:54;100128.78;;;30.43;35.27
48926;BME280;39838;59.938;30.642;2023-06-22T11:03:21;100122.28;;;30.45;34.88
48926;BME280;39838;59.938;30.642;2023-06-22T11:05:49;100115.38;;;30.43;35.09
48926;BME280;39838;59.938;30.642;2023-06-22T11:08:16;100117.44;;;30.30;35.61
48926;BME280;39838;59.938;30.642;2023-06-22T11:10:45;100124.91;;;30.05;35.62
48926;BME280;39838;59.938;30.642;2023-06-22T11:13:12;100133.66;;;29.77;36.03
48926;BME280;39838;59.938;30.642;2023-06-22T11:15:40;100144.00;;;29.49;35.97
48926;BME280;39838;59.938;30.642;2023-06-22T11:18:07;100127.75;;;29.20;36.15
48926;BME280;39838;59.938;30.642;2023-06-22T11:20:34;100146.28;;;29.01;39.62
48926;BME280;39838;59.938;30.642;2023-06-22T11:23:05;100157.06;;;28.34;42.44
48926;BME280;39838;59.938;30.642;2023-06-22T11:25:33;100153.28;;;27.67;44.99
48926;BME280;39838;59.938;30.642;2023-06-22T11:28:03;100157.56;;;27.11;46.15
48926;BME280;39838;59.938;30.642;2023-06-22T11:30:31;100151.41;;;26.61;47.30
48926;BME280;39838;59.938;30.642;2023-06-22T11:32:59;100161.06;;;26.12;48.23
48926;BME280;39838;59.938;30.642;2023-06-22T11:35:26;100156.59;;;25.75;48.56
48926;BME280;39838;59.938;30.642;2023-06-22T11:37:54;100157.31;;;25.37;50.78
48926;BME280;39838;59.938;30.642;2023-06-22T11:40:22;100160.28;;;25.05;52.34
48926;BME280;39838;59.938;30.642;2023-06-22T11:42:49;100174.34;;;24.38;56.50
48926;BME280;39838;59.938;30.642;2023-06-22T11:45:18;100157.50;;;23.20;57.13
48926;BME280;39838;59.938;30.642;2023-06-22T11:47:46;100157.75;;;22.37;63.45
48926;BME280;39838;59.938;30.642;2023-06-22T11:50:13;100159.84;;;21.97;67.97
48926;BME280;39838;59.938;30.642;2023-06-22T11:52:41;100180.88;;;21.83;68.38
48926;BME280;39838;59.938;30.642;2023-06-22T11:55:08;100208.31;;;21.63;68.60
48926;BME280;39838;59.938;30.642;2023-06-22T11:57:37;100194.22;;;21.45;67.46
48926;BME280;39838;59.938;30.642;2023-06-22T12:00:05;100182.75;;;21.27;65.83
48926;BME280;39838;59.938;30.642;2023-06-22T12:02:44;100165.94;;;21.11;65.94
48926;BME280;39838;59.938;30.642;2023-06-22T12:05:11;100148.19;;;20.95;65.24
48926;BME280;39838;59.938;30.642;2023-06-22T12:07:39;100138.31;;;20.82;65.79
48926;BME280;39838;59.938;30.642;2023-06-22T12:10:07;100128.47;;;20.66;65.22
48926;BME280;39838;59.938;30.642;2023-06-22T12:12:34;100116.63;;;20.56;63.65
48926;BME280;39838;59.938;30.642;2023-06-22T12:15:02;100106.81;;;20.60;61.75
48926;BME280;39838;59.938;30.642;2023-06-22T12:17:31;100092.38;;;20.67;61.99
48926;BME280;39838;59.938;30.642;2023-06-22T12:20:00;100092.66;;;20.80;60.12
48926;BME280;39838;59.938;30.642;2023-06-22T12:22:28;100076.69;;;21.00;60.72
48926;BME280;39838;59.938;30.642;2023-06-22T12:24:56;100080.88;;;21.21;61.06
48926;BME280;39838;59.938;30.642;2023-06-22T12:27:24;100072.03;;;21.40;61.05
48926;BME280;39838;59.938;30.642;2023-06-22T12:29:52;100079.25;;;21.53;62.10
48926;BME280;39838;59.938;30.642;2023-06-22T12:32:19;100074.97;;;21.68;61.67
48926;BME280;39838;59.938;30.642;2023-06-22T12:34:47;100069.81;;;21.83;62.29
48926;BME280;39838;59.938;30.642;2023-06-22T12:37:16;100068.13;;;21.97;62.21
48926;BME280;39838;59.938;30.642;2023-06-22T12:39:43;100060.50;;;22.09;61.63
48926;BME280;39838;59.938;30.642;2023-06-22T12:42:10;100056.25;;;22.22;61.99
48926;BME280;39838;59.938;30.642;2023-06-22T12:44:39;100045.41;;;22.42;60.76
48926;BME280;39838;59.938;30.642;2023-06-22T12:47:07;100048.66;;;22.63;59.17
48926;BME280;39838;59.938;30.642;2023-06-22T12:49:34;100045.59;;;22.85;58.98